createdAt,value
2023-04-08T00:00:31.972Z,316.40
2023-04-08T00:03:37.941Z,356.27
2023-04-08T00:06:44.567Z,339.65
2023-04-08T00:09:50.211Z,396.64
2023-04-08T00:12:56.841Z,299.35
2023-04-08T00:16:06.225Z,285.18
2023-04-08T00:19:12.718Z,319.58
2023-04-08T00:22:18.514Z,311.73
2023-04-08T00:25:25.699Z,371.83
2023-04-08T00:28:32.401Z,337.26
2023-04-08T00:31:41.749Z,327.13
2023-04-08T00:34:47.828Z,359.98
2023-04-08T00:37:54.300Z,325.46
2023-04-08T00:40:59.940Z,382.18
2023-04-08T00:44:06.625Z,284.44
2023-04-08T00:47:16.022Z,257.75
2023-04-08T00:50:23.050Z,249.79
2023-04-08T00:53:28.779Z,342.64
2023-04-08T00:56:37.291Z,203.99
2023-04-08T00:59:45.371Z,292.30
2023-04-08T01:03:12.201Z,261.23
2023-04-08T01:06:35.448Z,207.51
2023-04-08T01:09:49.665Z,252.18
2023-04-08T01:13:01.300Z,201.84
2023-04-08T01:16:08.996Z,237.24
2023-04-08T01:19:30.964Z,207.22
2023-04-08T01:23:01.151Z,194.41
2023-04-08T01:26:09.748Z,250.27
2023-04-08T01:29:19.218Z,207.41
2023-04-08T01:32:27.436Z,219.19
2023-04-08T01:35:35.988Z,230.21
2023-04-08T01:38:43.111Z,243.63
2023-04-08T01:41:57.418Z,210.29
2023-04-08T01:45:08.205Z,223.26
2023-04-08T01:48:17.967Z,251.28
2023-04-08T01:51:27.316Z,234.56
2023-04-08T01:54:33.110Z,299.35
2023-04-08T01:57:47.352Z,237.75
2023-04-08T02:00:57.736Z,223.26
2023-04-08T02:04:07.091Z,256.39
2023-04-08T02:07:14.708Z,246.29
2023-04-08T02:10:21.178Z,268.77
2023-04-08T02:13:29.702Z,274.78
2023-04-08T02:16:45.989Z,216.02
2023-04-08T02:20:10.250Z,197.35
2023-04-08T02:23:23.615Z,220.94
2023-04-08T02:26:30.936Z,219.18
2023-04-08T02:29:43.399Z,248.15
2023-04-08T02:32:52.866Z,269.01
2023-04-08T02:36:00.385Z,265.60
2023-04-08T02:39:06.516Z,241.62
2023-04-08T02:42:12.991Z,235.75
2023-04-08T02:45:21.484Z,287.12
2023-04-08T02:48:29.749Z,254.89
2023-04-08T02:51:35.524Z,217.81
2023-04-08T02:54:42.018Z,276.79
2023-04-08T02:57:47.869Z,243.08
2023-04-08T03:00:57.228Z,225.68
2023-04-08T03:04:02.932Z,219.49
2023-04-08T03:07:09.524Z,234.05
2023-04-08T03:10:15.385Z,224.33
2023-04-08T03:13:21.832Z,209.13
2023-04-08T03:16:30.326Z,218.63
2023-04-08T03:19:37.065Z,229.25
2023-04-08T03:22:42.631Z,205.12
2023-04-08T03:25:49.087Z,221.97
2023-04-08T03:28:56.054Z,237.73
2023-04-08T03:32:05.286Z,229.77
2023-04-08T03:35:12.513Z,208.00
2023-04-08T03:38:18.975Z,222.44
2023-04-08T03:41:24.571Z,225.53
2023-04-08T03:44:31.366Z,236.06
2023-04-08T03:47:39.736Z,229.94
2023-04-08T03:50:46.221Z,240.77
2023-04-08T03:53:51.939Z,233.99
2023-04-08T03:56:58.996Z,220.34
2023-04-08T04:00:05.011Z,224.58
2023-04-08T04:03:21.883Z,226.26
2023-04-08T04:06:28.061Z,233.66
2023-04-08T04:09:34.560Z,213.48
2023-04-08T04:12:40.163Z,243.79
2023-04-08T04:15:46.732Z,223.95
2023-04-08T04:18:56.049Z,245.55
2023-04-08T04:22:02.514Z,239.77
2023-04-08T04:25:09.478Z,240.24
2023-04-08T04:28:16.069Z,285.20
2023-04-08T04:31:23.539Z,244.19
2023-04-08T04:34:32.608Z,233.77
2023-04-08T04:37:38.155Z,237.02
2023-04-08T04:40:44.543Z,291.29
2023-04-08T04:43:50.148Z,283.73
2023-04-08T04:46:56.527Z,257.68
2023-04-08T04:50:04.849Z,223.09
2023-04-08T04:53:11.609Z,263.36
2023-04-08T04:56:17.174Z,245.52
2023-04-08T04:59:23.645Z,264.06
2023-04-08T05:02:29.690Z,366.94
2023-04-08T05:05:38.763Z,283.06
2023-04-08T05:08:45.350Z,270.28
2023-04-08T05:11:51.861Z,316.99
2023-04-08T05:14:57.506Z,257.64
2023-04-08T05:18:03.978Z,249.60
2023-04-08T05:21:12.307Z,241.05
2023-04-08T05:24:18.883Z,222.15
2023-04-08T05:27:24.605Z,211.04
2023-04-08T05:30:31.205Z,201.57
2023-04-08T05:33:36.786Z,202.17
2023-04-08T05:36:45.869Z,207.57
2023-04-08T05:39:51.525Z,200.25
2023-04-08T05:42:58.007Z,204.11
2023-04-08T05:46:03.539Z,204.11
2023-04-08T05:49:10.015Z,198.50
2023-04-08T05:52:18.103Z,198.23
2023-04-08T05:55:24.678Z,202.06
2023-04-08T05:58:30.361Z,229.32
2023-04-08T06:01:36.960Z,213.24
2023-04-08T06:04:42.792Z,208.49
2023-04-08T06:07:51.875Z,209.05
2023-04-08T06:10:57.501Z,197.96
2023-04-08T06:14:03.902Z,214.48
2023-04-08T06:17:09.643Z,198.62
2023-04-08T06:20:16.250Z,210.12
2023-04-08T06:23:24.452Z,201.06
2023-04-08T06:26:33.223Z,213.16
2023-04-08T06:29:39.693Z,216.83
2023-04-08T06:32:47.555Z,204.45
2023-04-08T06:35:53.210Z,201.16
2023-04-08T06:39:02.280Z,202.18
2023-04-08T06:42:07.927Z,202.65
2023-04-08T06:45:47.682Z,221.62
2023-04-08T06:48:53.273Z,212.18
2023-04-08T06:51:59.947Z,212.51
2023-04-08T06:55:09.454Z,195.47
2023-04-08T06:58:15.849Z,184.34
2023-04-08T07:01:21.922Z,192.66
2023-04-08T07:04:28.481Z,201.88
2023-04-08T07:07:34.416Z,216.61
2023-04-08T07:10:43.581Z,248.69
2023-04-08T07:13:49.369Z,242.99
2023-04-08T07:16:56.500Z,180.17
2023-04-08T07:20:02.098Z,178.94
2023-04-08T07:23:08.728Z,153.77
2023-04-08T07:26:17.059Z,156.13
2023-04-08T07:29:24.016Z,145.72
2023-04-08T07:32:35.585Z,147.23
2023-04-08T07:35:42.999Z,138.77
2023-04-08T07:38:50.035Z,174.79
2023-04-08T07:41:59.294Z,169.74
2023-04-08T07:45:05.735Z,195.69
2023-04-08T07:48:12.290Z,164.47
2023-04-08T07:51:20.732Z,163.03
2023-04-08T07:54:27.679Z,162.27
2023-04-08T07:57:36.432Z,180.43
2023-04-08T08:00:42.915Z,193.24
2023-04-08T08:03:49.034Z,140.68
2023-04-08T08:06:55.958Z,154.30
2023-04-08T08:10:01.633Z,149.10
2023-04-08T08:13:12.886Z,131.69
2023-04-08T08:16:18.745Z,158.43
2023-04-08T08:19:25.319Z,135.50
2023-04-08T08:22:30.850Z,132.02
2023-04-08T08:25:37.188Z,123.82
2023-04-08T08:28:45.473Z,123.45
2023-04-08T08:31:52.102Z,150.13
2023-04-08T08:34:57.603Z,116.37
2023-04-08T08:38:04.142Z,126.88
2023-04-08T08:41:09.732Z,135.28
2023-04-08T08:44:19.082Z,111.57
2023-04-08T08:47:24.714Z,108.14
2023-04-08T08:50:31.788Z,103.24
2023-04-08T08:53:37.686Z,95.58
2023-04-08T08:56:44.240Z,90.62
2023-04-08T08:59:53.143Z,88.79
2023-04-08T09:02:59.676Z,81.96
2023-04-08T09:06:08.313Z,123.02
2023-04-08T09:09:15.412Z,143.53
2023-04-08T09:12:21.678Z,130.14
2023-04-08T09:15:32.478Z,102.21
2023-04-08T09:18:39.159Z,102.71
2023-04-08T09:21:45.680Z,80.98
2023-04-08T09:24:52.069Z,83.20
2023-04-08T09:27:59.217Z,91.96
2023-04-08T09:31:25.960Z,94.35
2023-04-08T09:34:34.913Z,80.11
2023-04-08T09:37:40.889Z,84.49
2023-04-08T09:40:48.785Z,91.35
2023-04-08T09:43:58.987Z,88.20
2023-04-08T09:47:21.945Z,109.41
2023-04-08T09:50:35.496Z,83.45
2023-04-08T09:53:51.417Z,68.96
2023-04-08T09:57:08.725Z,68.05
2023-04-08T10:00:19.866Z,89.09
2023-04-08T10:03:33.917Z,84.38
2023-04-08T10:06:44.667Z,76.64
2023-04-08T10:09:50.856Z,111.86
2023-04-08T10:12:58.342Z,93.25
2023-04-08T10:16:27.763Z,73.36
2023-04-08T10:19:43.370Z,103.67
2023-04-08T10:22:52.674Z,105.95
2023-04-08T10:25:59.282Z,96.30
2023-04-08T10:29:36.790Z,94.06
2023-04-08T10:32:45.202Z,97.70
2023-04-08T10:35:57.904Z,101.67
2023-04-08T10:39:04.428Z,97.12
2023-04-08T10:42:12.439Z,90.46
2023-04-08T10:45:20.580Z,90.68
2023-04-08T10:48:29.287Z,90.83
2023-04-08T10:51:38.739Z,85.25
2023-04-08T10:54:51.310Z,85.67
2023-04-08T10:57:58.260Z,86.68
2023-04-08T11:01:08.704Z,86.87
2023-04-08T11:04:17.408Z,97.72
2023-04-08T11:07:28.933Z,97.72
2023-04-08T11:10:42.186Z,97.73
2023-04-08T11:13:53.712Z,98.45
2023-04-08T11:17:01.856Z,113.05
2023-04-08T11:20:11.283Z,109.67
2023-04-08T11:23:23.093Z,112.20
2023-04-08T11:26:30.408Z,106.93
2023-04-08T11:29:38.407Z,96.29
2023-04-08T11:32:44.489Z,101.12
2023-04-08T11:35:54.695Z,100.05
2023-04-08T11:39:02.896Z,103.25
2023-04-08T11:42:09.443Z,103.86
2023-04-08T11:45:16.878Z,101.02
2023-04-08T11:48:24.086Z,108.98
2023-04-08T11:51:30.166Z,107.97
2023-04-08T11:54:46.418Z,104.96
2023-04-08T11:57:52.197Z,108.00
2023-04-08T12:00:58.844Z,115.78
2023-04-08T12:04:07.016Z,114.41
2023-04-08T12:07:13.731Z,122.74
2023-04-08T12:10:22.160Z,129.74
2023-04-08T12:13:29.086Z,116.25
2023-04-08T12:16:34.710Z,120.20
2023-04-08T12:19:41.430Z,131.94
2023-04-08T12:22:47.188Z,140.14
2023-04-08T12:25:56.327Z,131.41
2023-04-08T12:29:02.025Z,134.72
2023-04-08T12:32:08.535Z,135.00
2023-04-08T12:35:14.133Z,136.20
2023-04-08T12:38:20.736Z,131.52
2023-04-08T12:41:29.022Z,137.44
2023-04-08T12:44:35.694Z,123.80
2023-04-08T12:47:41.440Z,124.82
2023-04-08T12:50:47.922Z,129.23
2023-04-08T12:53:53.590Z,125.80
2023-04-08T12:57:03.212Z,119.77
2023-04-08T13:00:11.503Z,125.79
2023-04-08T13:03:18.340Z,135.94
2023-04-08T13:06:24.173Z,138.48
2023-04-08T13:09:30.931Z,191.01
2023-04-08T13:12:40.381Z,339.79
2023-04-08T13:15:47.457Z,406.25
2023-04-08T13:18:53.754Z,404.20
2023-04-08T13:22:00.225Z,155.47
2023-04-08T13:25:06.819Z,158.60
2023-04-08T13:28:16.007Z,231.22
2023-04-08T13:31:21.666Z,192.90
2023-04-08T13:34:28.165Z,193.90
2023-04-08T13:37:33.764Z,232.22
2023-04-08T13:40:40.591Z,265.61
2023-04-08T13:43:48.992Z,209.57
2023-04-08T13:46:55.611Z,320.80
2023-04-08T13:50:01.185Z,240.71
2023-04-08T13:53:07.757Z,177.14
2023-04-08T13:56:13.429Z,205.22
2023-04-08T13:59:22.846Z,247.22
2023-04-08T14:02:30.501Z,325.30
2023-04-08T14:05:37.312Z,305.60
2023-04-08T14:08:44.829Z,218.44
2023-04-08T14:11:53.394Z,181.41
2023-04-08T14:15:02.976Z,236.00
2023-04-08T14:18:10.666Z,212.87
2023-04-08T14:21:18.408Z,247.56
2023-04-08T14:24:27.324Z,183.93
2023-04-08T14:27:34.120Z,173.39
2023-04-08T14:30:43.102Z,157.62
2023-04-08T14:33:49.200Z,158.43
2023-04-08T14:36:55.655Z,172.30
2023-04-08T14:40:01.220Z,152.21
2023-04-08T14:43:09.131Z,170.74
2023-04-08T14:46:17.468Z,173.47
2023-04-08T14:49:23.908Z,170.51
2023-04-08T14:52:29.513Z,223.33
2023-04-08T14:55:35.976Z,179.99
2023-04-08T14:58:41.667Z,177.70
2023-04-08T15:01:51.132Z,173.34
2023-04-08T15:04:56.726Z,220.40
2023-04-08T15:08:03.597Z,207.30
2023-04-08T15:11:09.245Z,171.82
2023-04-08T15:14:15.708Z,185.27
2023-04-08T15:17:23.942Z,173.04
2023-04-08T15:20:30.450Z,174.78
2023-04-08T15:23:36.100Z,177.35
2023-04-08T15:26:42.699Z,152.60
2023-04-08T15:29:48.441Z,164.69
2023-04-08T15:32:57.711Z,171.69
2023-04-08T15:36:04.460Z,196.08
2023-04-08T15:39:10.990Z,212.46
2023-04-08T15:42:16.567Z,191.78
2023-04-08T15:45:23.645Z,172.99
2023-04-08T15:48:32.930Z,183.26
2023-04-08T15:51:39.570Z,179.00
2023-04-08T15:54:45.253Z,191.78
2023-04-08T15:57:54.291Z,233.58
2023-04-08T16:01:00.611Z,242.75
2023-04-08T16:04:09.988Z,240.79
2023-04-08T16:07:16.853Z,199.54
2023-04-08T16:10:23.384Z,290.21
2023-04-08T16:13:29.199Z,291.59
2023-04-08T16:16:35.702Z,261.63
2023-04-08T16:19:43.918Z,298.10
2023-04-08T16:22:50.605Z,220.99
2023-04-08T16:25:56.159Z,285.45
2023-04-08T16:29:02.652Z,213.60
2023-04-08T16:32:09.241Z,189.45
2023-04-08T16:35:18.727Z,241.87
2023-04-08T16:38:24.305Z,234.73
2023-04-08T16:41:30.847Z,234.97
2023-04-08T16:44:36.472Z,299.76
2023-04-08T16:47:43.671Z,347.51
2023-04-08T16:50:52.133Z,345.64
2023-04-08T16:53:59.385Z,378.42
2023-04-08T16:57:05.301Z,437.70
2023-04-08T17:00:13.317Z,1097.50
2023-04-08T17:03:18.966Z,1817.93
2023-04-08T17:06:28.018Z,713.30
2023-04-08T17:09:33.882Z,675.67
2023-04-08T17:12:40.250Z,922.86
2023-04-08T17:15:45.953Z,339.24
2023-04-08T17:18:54.082Z,237.40
2023-04-08T17:22:02.531Z,238.50
2023-04-08T17:25:10.906Z,249.16
2023-04-08T17:28:17.202Z,259.42
2023-04-08T17:31:23.710Z,227.89
2023-04-08T17:34:31.406Z,300.35
2023-04-08T17:37:40.409Z,228.58
2023-04-08T17:40:46.623Z,258.85
2023-04-08T17:43:53.242Z,279.92
2023-04-08T17:46:58.819Z,259.98
2023-04-08T17:50:05.322Z,261.98
2023-04-08T17:53:13.492Z,280.41
2023-04-08T17:56:23.536Z,251.63
2023-04-08T17:59:29.125Z,279.71
2023-04-08T18:02:41.586Z,337.29
2023-04-08T18:05:47.425Z,265.45
2023-04-08T18:08:56.645Z,320.71
2023-04-08T18:12:02.236Z,643.74
2023-04-08T18:15:10.224Z,770.75
2023-04-08T18:18:20.321Z,415.63
2023-04-08T18:21:27.376Z,476.62
2023-04-08T18:24:35.747Z,382.54
2023-04-08T18:27:42.193Z,328.62
2023-04-08T18:30:47.981Z,443.56
2023-04-08T18:33:54.546Z,383.32
2023-04-08T18:37:00.974Z,289.42
2023-04-08T18:40:11.861Z,387.89
2023-04-08T18:43:17.501Z,760.72
2023-04-08T18:46:24.747Z,483.06
2023-04-08T18:49:32.027Z,472.60
2023-04-08T18:52:40.428Z,463.58
2023-04-08T18:55:48.745Z,350.58
2023-04-08T18:58:55.454Z,395.71
2023-04-08T19:02:01.219Z,388.84
2023-04-08T19:05:08.989Z,375.98
2023-04-08T19:08:15.831Z,399.09
2023-04-08T19:11:29.062Z,344.55
2023-04-08T19:14:34.672Z,359.50
2023-04-08T19:17:41.366Z,368.97
2023-04-08T19:20:47.064Z,366.70
2023-04-08T19:23:53.627Z,419.27
2023-04-08T19:27:02.213Z,408.56
2023-04-08T19:30:11.007Z,445.53
2023-04-08T19:33:16.748Z,490.28
2023-04-08T19:36:23.193Z,481.30
2023-04-08T19:39:28.982Z,486.58
2023-04-08T19:42:38.402Z,432.40
2023-04-08T19:45:44.592Z,460.31
2023-04-08T19:48:51.124Z,537.27
2023-04-08T19:51:56.956Z,450.55
2023-04-08T19:55:03.760Z,427.56
2023-04-08T19:58:12.493Z,647.00
2023-04-08T20:01:19.436Z,946.96
2023-04-08T20:04:25.178Z,986.41
2023-04-08T20:07:31.757Z,1348.94
2023-04-08T20:10:37.454Z,1254.84
2023-04-08T20:13:47.338Z,1139.78
2023-04-08T20:16:53.784Z,1174.95
2023-04-08T20:20:00.461Z,1070.60
2023-04-08T20:23:06.600Z,1046.06
2023-04-08T20:26:14.072Z,913.26
2023-04-08T20:29:24.161Z,763.41
2023-04-08T20:32:31.028Z,804.07
2023-04-08T20:35:37.616Z,751.19
2023-04-08T20:38:44.743Z,627.28
2023-04-08T20:41:51.086Z,847.25
2023-04-08T20:45:00.390Z,612.87
2023-04-08T20:48:06.131Z,540.46
2023-04-08T20:51:13.663Z,544.69
2023-04-08T20:54:19.854Z,497.41
2023-04-08T20:57:26.710Z,488.67
2023-04-08T21:00:38.714Z,500.67
2023-04-08T21:03:45.885Z,506.55
2023-04-08T21:06:53.994Z,492.80
2023-04-08T21:10:00.677Z,494.23
2023-04-08T21:13:11.730Z,478.51
2023-04-08T21:16:21.170Z,471.04
2023-04-08T21:19:27.565Z,471.07
2023-04-08T21:22:34.354Z,457.45
2023-04-08T21:25:39.898Z,466.09
2023-04-08T21:28:50.395Z,456.04
2023-04-08T21:31:58.699Z,420.67
2023-04-08T21:35:07.046Z,426.90
2023-04-08T21:38:13.200Z,429.24
2023-04-08T21:41:20.125Z,426.94
2023-04-08T21:44:25.855Z,478.38
2023-04-08T21:47:35.098Z,482.20
2023-04-08T21:50:42.180Z,510.27
2023-04-08T21:53:49.127Z,438.14
2023-04-08T21:56:55.393Z,427.61
2023-04-08T22:00:08.252Z,443.46
2023-04-08T22:03:23.497Z,486.67
2023-04-08T22:06:32.870Z,513.05
2023-04-08T22:09:38.742Z,511.31
2023-04-08T22:12:45.597Z,504.14
2023-04-08T22:15:51.793Z,480.78
2023-04-08T22:19:00.911Z,471.09
2023-04-08T22:22:06.481Z,466.69
2023-04-08T22:25:13.948Z,458.53
2023-04-08T22:28:19.651Z,447.08
2023-04-08T22:31:26.542Z,437.02
2023-04-08T22:34:34.856Z,419.51
2023-04-08T22:37:41.806Z,393.83
2023-04-08T22:40:47.488Z,373.94
2023-04-08T22:43:54.331Z,376.26
2023-04-08T22:46:59.926Z,372.27
2023-04-08T22:50:10.801Z,375.22
2023-04-08T22:53:16.517Z,389.57
2023-04-08T22:56:23.588Z,393.52
2023-04-08T22:59:29.281Z,405.58
2023-04-08T23:02:35.926Z,409.71
2023-04-08T23:05:44.399Z,443.75
2023-04-08T23:08:51.169Z,474.65
2023-04-08T23:11:57.632Z,454.68
2023-04-08T23:15:04.728Z,453.58
2023-04-08T23:18:10.506Z,466.78
2023-04-08T23:21:20.582Z,449.29
2023-04-08T23:24:26.214Z,436.47
2023-04-08T23:27:32.637Z,421.83
2023-04-08T23:30:39.690Z,398.53
2023-04-08T23:33:46.268Z,391.10
2023-04-08T23:36:54.415Z,416.64
2023-04-08T23:40:00.870Z,391.66
2023-04-08T23:43:06.572Z,353.48
2023-04-08T23:46:13.111Z,335.02
2023-04-08T23:49:18.728Z,310.50
2023-04-08T23:52:27.845Z,313.94
2023-04-08T23:55:33.393Z,320.94
2023-04-08T23:58:40.023Z,348.96
